Miniplon — FIDV — position and weather

sailwx.info

Track history (hours):
 
Tides and Currents Weather Stations Pressure Air Temp Water Temp Dewpoint Dewpoint Depression Visibility Wind Speed Wind Dir Waves Ship Positions

Miniplon

Last reported at 2015-Apr-02 02:30 UTC. Time now 2015-Apr-02 04:27 UTC.
Position N 46°30' W 001°47'.

Length 22 m.

Type: SAR. MMSI: 228024600.

Date/timePositionNaut miles runAvg speedWind from/ knotsBaromVisibWave heightAir tempDewpointWater temp
2015-Apr-02 02:30N 46°30' W 001°47'0 0.0
2015-Apr-02 01:31N 46°30' W 001°47'0 0.0
2015-Apr-02 00:33N 46°30' W 001°47'0 0.0
2015-Apr-01 23:34N 46°30' W 001°47'0 0.0
2015-Apr-01 22:34N 46°30' W 001°47'0 0.0
2015-Apr-01 21:34N 46°30' W 001°47'0 0.0
2015-Apr-01 20:33N 46°30' W 001°47'0 0.0
2015-Apr-01 19:33N 46°30' W 001°47'0 0.0
2015-Apr-01 18:30N 46°30' W 001°47'0 0.0
2015-Apr-01 17:30N 46°30' W 001°47'0 0.0
2015-Apr-01 16:33N 46°30' W 001°47'0 0.0
2015-Apr-01 15:33N 46°30' W 001°47'0 0.0
2015-Apr-01 14:33N 46°30' W 001°47'0 0.1
2015-Apr-01 13:32N 46°30' W 001°47'0 0.0
2015-Mar-31 17:09N 46°30' W 001°47'4 6.5
2015-Mar-31 16:33N 46°30' W 001°53'10 1.5
2015-Mar-31 10:17N 46°37' W 002°02'5 6.5
2015-Mar-31 09:33N 46°33' W 001°58'6 6.4
2015-Mar-31 08:33N 46°29' W 001°51'  
2015-Mar-27 07:32N 46°30' W 001°47'0 0.0
2015-Mar-25 17:21N 46°30' W 001°47'2 1.9
2015-Mar-25 16:33N 46°28' W 001°47'1 1.5
2015-Mar-25 15:33N 46°30' W 001°48'2 1.5
2015-Mar-25 14:33N 46°28' W 001°47'10 9.6
2015-Mar-25 13:33N 46°34' W 001°58'8 0.3
2015-Mar-24 14:26N 46°27' W 002°04'8 8.8
2015-Mar-24 13:34N 46°28' W 001°53'4 4.3
2015-Mar-24 12:32N 46°30' W 001°47'0 0.0
2015-Mar-24 11:32N 46°30' W 001°47'0 0.0
2015-Mar-24 10:32N 46°30' W 001°47'  
Track history (hours):
 
Tides and Currents Weather Stations Pressure Air Temp Water Temp Dewpoint Dewpoint Depression Visibility Wind Speed Wind Dir Waves Ship Positions

Miniplon

Last reported at 2015-Apr-02 02:30 UTC. Time now 2015-Apr-02 04:27 UTC.
Position N 46°30' W 001°47'.

Length 22 m.

Type: SAR. MMSI: 228024600.

Date/timePositionNaut miles runAvg speedWind from/ knotsBaromVisibWave heightAir tempDewpointWater temp
2015-Apr-02 02:30N 46°30' W 001°47'0 0.0
2015-Apr-02 01:31N 46°30' W 001°47'0 0.0
2015-Apr-02 00:33N 46°30' W 001°47'0 0.0
2015-Apr-01 23:34N 46°30' W 001°47'0 0.0
2015-Apr-01 22:34N 46°30' W 001°47'0 0.0
2015-Apr-01 21:34N 46°30' W 001°47'0 0.0
2015-Apr-01 20:33N 46°30' W 001°47'0 0.0
2015-Apr-01 19:33N 46°30' W 001°47'0 0.0
2015-Apr-01 18:30N 46°30' W 001°47'0 0.0
2015-Apr-01 17:30N 46°30' W 001°47'0 0.0
2015-Apr-01 16:33N 46°30' W 001°47'0 0.0
2015-Apr-01 15:33N 46°30' W 001°47'0 0.0
2015-Apr-01 14:33N 46°30' W 001°47'0 0.1
2015-Apr-01 13:32N 46°30' W 001°47'0 0.0
2015-Mar-31 17:09N 46°30' W 001°47'4 6.5
2015-Mar-31 16:33N 46°30' W 001°53'10 1.5
2015-Mar-31 10:17N 46°37' W 002°02'5 6.5
2015-Mar-31 09:33N 46°33' W 001°58'6 6.4
2015-Mar-31 08:33N 46°29' W 001°51'  
2015-Mar-27 07:32N 46°30' W 001°47'0 0.0
2015-Mar-25 17:21N 46°30' W 001°47'2 1.9
2015-Mar-25 16:33N 46°28' W 001°47'1 1.5
2015-Mar-25 15:33N 46°30' W 001°48'2 1.5
2015-Mar-25 14:33N 46°28' W 001°47'10 9.6
2015-Mar-25 13:33N 46°34' W 001°58'8 0.3
2015-Mar-24 14:26N 46°27' W 002°04'8 8.8
2015-Mar-24 13:34N 46°28' W 001°53'4 4.3
2015-Mar-24 12:32N 46°30' W 001°47'0 0.0
2015-Mar-24 11:32N 46°30' W 001°47'0 0.0
2015-Mar-24 10:32N 46°30' W 001°47'  

Dump ship's entire track history